sensor_id;sensor_type;location;lat;lon;timestamp;P1;durP1;ratioP1;P2;durP2;ratioP2
72920;SDS011;61064;51.654;5.476;2023-02-28T00:00:33;9.85;;;3.75;;
72920;SDS011;61064;51.654;5.476;2023-02-28T00:02:59;12.93;;;4.23;;
72920;SDS011;61064;51.654;5.476;2023-02-28T00:05:25;8.85;;;3.60;;
72920;SDS011;61064;51.654;5.476;2023-02-28T00:07:52;9.97;;;4.10;;
72920;SDS011;61064;51.654;5.476;2023-02-28T00:10:19;10.55;;;3.80;;
72920;SDS011;61064;51.654;5.476;2023-02-28T00:12:48;9.93;;;3.70;;
72920;SDS011;61064;51.654;5.476;2023-02-28T00:15:14;11.05;;;4.10;;
72920;SDS011;61064;51.654;5.476;2023-02-28T00:17:40;9.50;;;4.00;;
72920;SDS011;61064;51.654;5.476;2023-02-28T00:20:05;8.43;;;3.50;;
72920;SDS011;61064;51.654;5.476;2023-02-28T00:22:35;11.00;;;3.92;;
72920;SDS011;61064;51.654;5.476;2023-02-28T00:25:00;9.00;;;3.50;;
72920;SDS011;61064;51.654;5.476;2023-02-28T00:27:26;12.23;;;3.53;;
72920;SDS011;61064;51.654;5.476;2023-02-28T00:29:51;9.97;;;3.60;;
72920;SDS011;61064;51.654;5.476;2023-02-28T00:32:18;9.32;;;3.72;;
72920;SDS011;61064;51.654;5.476;2023-02-28T00:34:44;9.88;;;3.97;;
72920;SDS011;61064;51.654;5.476;2023-02-28T00:37:10;10.50;;;3.70;;
72920;SDS011;61064;51.654;5.476;2023-02-28T00:39:37;10.27;;;3.70;;
72920;SDS011;61064;51.654;5.476;2023-02-28T00:42:03;9.02;;;3.67;;
72920;SDS011;61064;51.654;5.476;2023-02-28T00:44:29;9.43;;;3.58;;
72920;SDS011;61064;51.654;5.476;2023-02-28T00:46:55;10.15;;;3.67;;
72920;SDS011;61064;51.654;5.476;2023-02-28T00:49:22;8.50;;;3.45;;
72920;SDS011;61064;51.654;5.476;2023-02-28T00:51:48;8.27;;;3.50;;
72920;SDS011;61064;51.654;5.476;2023-02-28T00:54:13;7.80;;;3.70;;
72920;SDS011;61064;51.654;5.476;2023-02-28T00:56:39;8.10;;;3.60;;
72920;SDS011;61064;51.654;5.476;2023-02-28T00:59:04;7.73;;;3.20;;
72920;SDS011;61064;51.654;5.476;2023-02-28T01:01:30;10.23;;;3.73;;
72920;SDS011;61064;51.654;5.476;2023-02-28T01:03:55;7.70;;;3.40;;
72920;SDS011;61064;51.654;5.476;2023-02-28T01:06:20;11.60;;;3.60;;
72920;SDS011;61064;51.654;5.476;2023-02-28T01:08:46;9.47;;;3.43;;
72920;SDS011;61064;51.654;5.476;2023-02-28T01:11:12;8.40;;;3.30;;
72920;SDS011;61064;51.654;5.476;2023-02-28T01:13:39;8.07;;;3.65;;
72920;SDS011;61064;51.654;5.476;2023-02-28T01:16:06;10.43;;;4.30;;
72920;SDS011;61064;51.654;5.476;2023-02-28T01:18:31;9.15;;;3.60;;
72920;SDS011;61064;51.654;5.476;2023-02-28T01:20:57;8.53;;;3.30;;
72920;SDS011;61064;51.654;5.476;2023-02-28T01:23:22;9.93;;;3.83;;
72920;SDS011;61064;51.654;5.476;2023-02-28T01:25:49;10.07;;;3.15;;
72920;SDS011;61064;51.654;5.476;2023-02-28T01:28:15;8.60;;;3.35;;
72920;SDS011;61064;51.654;5.476;2023-02-28T01:30:40;8.73;;;3.57;;
72920;SDS011;61064;51.654;5.476;2023-02-28T01:33:06;9.90;;;3.80;;
72920;SDS011;61064;51.654;5.476;2023-02-28T01:35:32;7.83;;;3.23;;
72920;SDS011;61064;51.654;5.476;2023-02-28T01:37:58;10.10;;;3.38;;
72920;SDS011;61064;51.654;5.476;2023-02-28T01:40:24;9.10;;;3.83;;
72920;SDS011;61064;51.654;5.476;2023-02-28T01:42:49;10.23;;;3.75;;
72920;SDS011;61064;51.654;5.476;2023-02-28T01:45:25;7.37;;;3.43;;
72920;SDS011;61064;51.654;5.476;2023-02-28T01:47:52;9.35;;;3.45;;
72920;SDS011;61064;51.654;5.476;2023-02-28T01:50:23;7.95;;;3.35;;
72920;SDS011;61064;51.654;5.476;2023-02-28T01:52:51;10.10;;;3.20;;
72920;SDS011;61064;51.654;5.476;2023-02-28T01:55:20;8.98;;;3.33;;
72920;SDS011;61064;51.654;5.476;2023-02-28T01:57:50;10.55;;;3.55;;
72920;SDS011;61064;51.654;5.476;2023-02-28T02:00:20;8.93;;;3.40;;
72920;SDS011;61064;51.654;5.476;2023-02-28T02:02:48;8.82;;;3.47;;
72920;SDS011;61064;51.654;5.476;2023-02-28T02:05:21;11.07;;;4.35;;
72920;SDS011;61064;51.654;5.476;2023-02-28T02:07:49;12.25;;;3.90;;
72920;SDS011;61064;51.654;5.476;2023-02-28T02:10:20;11.10;;;3.63;;
72920;SDS011;61064;51.654;5.476;2023-02-28T02:13:19;10.63;;;4.10;;
72920;SDS011;61064;51.654;5.476;2023-02-28T02:18:43;8.50;;;3.60;;
72920;SDS011;61064;51.654;5.476;2023-02-28T02:21:16;10.45;;;3.67;;
72920;SDS011;61064;51.654;5.476;2023-02-28T02:43:31;10.07;;;4.75;;
72920;SDS011;61064;51.654;5.476;2023-02-28T02:46:11;10.27;;;4.10;;
72920;SDS011;61064;51.654;5.476;2023-02-28T02:48:53;11.38;;;4.13;;
72920;SDS011;61064;51.654;5.476;2023-02-28T02:51:22;9.80;;;3.78;;
72920;SDS011;61064;51.654;5.476;2023-02-28T02:53:51;9.35;;;3.78;;
72920;SDS011;61064;51.654;5.476;2023-02-28T02:56:23;9.55;;;3.90;;
72920;SDS011;61064;51.654;5.476;2023-02-28T02:58:51;12.57;;;4.20;;
72920;SDS011;61064;51.654;5.476;2023-02-28T03:01:22;9.93;;;4.03;;
72920;SDS011;61064;51.654;5.476;2023-02-28T03:04:02;10.35;;;4.32;;
72920;SDS011;61064;51.654;5.476;2023-02-28T03:06:32;9.23;;;3.95;;
72920;SDS011;61064;51.654;5.476;2023-02-28T03:08:57;11.38;;;3.78;;
72920;SDS011;61064;51.654;5.476;2023-02-28T03:11:22;8.07;;;3.90;;
72920;SDS011;61064;51.654;5.476;2023-02-28T03:14:07;8.77;;;4.00;;
72920;SDS011;61064;51.654;5.476;2023-02-28T03:26:34;12.27;;;4.20;;
72920;SDS011;61064;51.654;5.476;2023-02-28T03:31:54;11.23;;;4.30;;
72920;SDS011;61064;51.654;5.476;2023-02-28T03:34:40;10.32;;;3.72;;
72920;SDS011;61064;51.654;5.476;2023-02-28T03:37:25;9.30;;;3.72;;
72920;SDS011;61064;51.654;5.476;2023-02-28T03:40:02;11.43;;;4.50;;
72920;SDS011;61064;51.654;5.476;2023-02-28T03:42:31;10.07;;;4.22;;
72920;SDS011;61064;51.654;5.476;2023-02-28T03:45:02;8.70;;;3.87;;
72920;SDS011;61064;51.654;5.476;2023-02-28T03:47:51;11.93;;;4.13;;
72920;SDS011;61064;51.654;5.476;2023-02-28T03:55:39;9.52;;;4.05;;
72920;SDS011;61064;51.654;5.476;2023-02-28T03:58:14;8.83;;;4.20;;
72920;SDS011;61064;51.654;5.476;2023-02-28T04:00:50;11.13;;;3.90;;
72920;SDS011;61064;51.654;5.476;2023-02-28T04:03:32;10.82;;;4.40;;
72920;SDS011;61064;51.654;5.476;2023-02-28T04:05:58;9.93;;;4.07;;
72920;SDS011;61064;51.654;5.476;2023-02-28T04:08:23;10.00;;;4.35;;
72920;SDS011;61064;51.654;5.476;2023-02-28T04:10:59;9.63;;;3.97;;
72920;SDS011;61064;51.654;5.476;2023-02-28T04:13:30;9.57;;;3.97;;
72920;SDS011;61064;51.654;5.476;2023-02-28T04:15:56;9.30;;;3.80;;
72920;SDS011;61064;51.654;5.476;2023-02-28T04:18:21;9.60;;;4.23;;
72920;SDS011;61064;51.654;5.476;2023-02-28T04:20:47;9.50;;;3.85;;
72920;SDS011;61064;51.654;5.476;2023-02-28T04:23:13;11.80;;;4.10;;
72920;SDS011;61064;51.654;5.476;2023-02-28T04:25:38;10.83;;;4.20;;
72920;SDS011;61064;51.654;5.476;2023-02-28T04:28:05;8.82;;;4.05;;
72920;SDS011;61064;51.654;5.476;2023-02-28T04:30:31;9.20;;;3.80;;
72920;SDS011;61064;51.654;5.476;2023-02-28T04:32:57;9.02;;;3.88;;
72920;SDS011;61064;51.654;5.476;2023-02-28T04:35:23;8.30;;;3.87;;
72920;SDS011;61064;51.654;5.476;2023-02-28T04:37:48;10.13;;;3.90;;
72920;SDS011;61064;51.654;5.476;2023-02-28T04:40:14;7.95;;;3.42;;
72920;SDS011;61064;51.654;5.476;2023-02-28T04:42:39;9.70;;;3.93;;
72920;SDS011;61064;51.654;5.476;2023-02-28T04:45:05;9.30;;;3.77;;
72920;SDS011;61064;51.654;5.476;2023-02-28T04:47:31;9.80;;;3.65;;
72920;SDS011;61064;51.654;5.476;2023-02-28T04:49:56;9.53;;;4.30;;
72920;SDS011;61064;51.654;5.476;2023-02-28T04:52:22;10.63;;;3.93;;
72920;SDS011;61064;51.654;5.476;2023-02-28T04:54:47;11.07;;;3.60;;
72920;SDS011;61064;51.654;5.476;2023-02-28T04:57:13;9.73;;;3.97;;
72920;SDS011;61064;51.654;5.476;2023-02-28T04:59:38;8.37;;;3.60;;
72920;SDS011;61064;51.654;5.476;2023-02-28T05:02:03;9.13;;;3.70;;
72920;SDS011;61064;51.654;5.476;2023-02-28T05:04:32;8.48;;;3.80;;
72920;SDS011;61064;51.654;5.476;2023-02-28T05:07:00;8.93;;;3.60;;
72920;SDS011;61064;51.654;5.476;2023-02-28T05:09:26;7.88;;;3.58;;
72920;SDS011;61064;51.654;5.476;2023-02-28T05:11:53;8.60;;;3.40;;
72920;SDS011;61064;51.654;5.476;2023-02-28T05:14:18;9.75;;;3.42;;
72920;SDS011;61064;51.654;5.476;2023-02-28T05:16:44;11.07;;;3.97;;
72920;SDS011;61064;51.654;5.476;2023-02-28T05:19:09;9.20;;;3.80;;
72920;SDS011;61064;51.654;5.476;2023-02-28T05:21:35;9.53;;;3.40;;
72920;SDS011;61064;51.654;5.476;2023-02-28T05:24:10;7.80;;;3.50;;
72920;SDS011;61064;51.654;5.476;2023-02-28T05:26:37;8.93;;;3.78;;
72920;SDS011;61064;51.654;5.476;2023-02-28T05:29:05;11.05;;;3.70;;
72920;SDS011;61064;51.654;5.476;2023-02-28T05:31:31;8.27;;;3.40;;
72920;SDS011;61064;51.654;5.476;2023-02-28T05:33:56;8.80;;;3.67;;
72920;SDS011;61064;51.654;5.476;2023-02-28T05:36:22;8.87;;;3.50;;
72920;SDS011;61064;51.654;5.476;2023-02-28T05:38:48;8.38;;;3.40;;
72920;SDS011;61064;51.654;5.476;2023-02-28T05:41:15;9.30;;;3.70;;
72920;SDS011;61064;51.654;5.476;2023-02-28T05:43:41;8.90;;;3.42;;
72920;SDS011;61064;51.654;5.476;2023-02-28T05:46:07;7.93;;;3.23;;
72920;SDS011;61064;51.654;5.476;2023-02-28T05:48:34;8.98;;;3.28;;
72920;SDS011;61064;51.654;5.476;2023-02-28T05:51:01;9.37;;;3.40;;
72920;SDS011;61064;51.654;5.476;2023-02-28T05:53:28;9.80;;;4.00;;
72920;SDS011;61064;51.654;5.476;2023-02-28T05:55:54;9.48;;;3.92;;
72920;SDS011;61064;51.654;5.476;2023-02-28T05:58:19;8.90;;;3.57;;
72920;SDS011;61064;51.654;5.476;2023-02-28T06:00:45;8.65;;;3.53;;
72920;SDS011;61064;51.654;5.476;2023-02-28T06:03:10;10.40;;;3.90;;
72920;SDS011;61064;51.654;5.476;2023-02-28T06:05:36;8.33;;;3.70;;
72920;SDS011;61064;51.654;5.476;2023-02-28T06:08:03;8.98;;;3.70;;
72920;SDS011;61064;51.654;5.476;2023-02-28T06:10:30;10.45;;;3.90;;
72920;SDS011;61064;51.654;5.476;2023-02-28T06:12:59;12.13;;;4.87;;
72920;SDS011;61064;51.654;5.476;2023-02-28T06:15:27;10.75;;;4.65;;
72920;SDS011;61064;51.654;5.476;2023-02-28T06:17:53;12.13;;;4.78;;
72920;SDS011;61064;51.654;5.476;2023-02-28T06:20:18;9.87;;;3.83;;
72920;SDS011;61064;51.654;5.476;2023-02-28T06:22:43;11.73;;;3.53;;
72920;SDS011;61064;51.654;5.476;2023-02-28T06:25:09;11.17;;;3.60;;
72920;SDS011;61064;51.654;5.476;2023-02-28T06:27:35;11.82;;;3.83;;
72920;SDS011;61064;51.654;5.476;2023-02-28T06:30:01;8.97;;;3.57;;
72920;SDS011;61064;51.654;5.476;2023-02-28T06:32:26;9.33;;;3.70;;
72920;SDS011;61064;51.654;5.476;2023-02-28T06:34:52;8.43;;;3.77;;
72920;SDS011;61064;51.654;5.476;2023-02-28T06:37:18;8.13;;;3.50;;
72920;SDS011;61064;51.654;5.476;2023-02-28T06:39:43;7.95;;;3.58;;
72920;SDS011;61064;51.654;5.476;2023-02-28T06:42:09;9.57;;;3.80;;
72920;SDS011;61064;51.654;5.476;2023-02-28T06:44:34;8.53;;;3.83;;
72920;SDS011;61064;51.654;5.476;2023-02-28T06:47:04;11.10;;;3.67;;
72920;SDS011;61064;51.654;5.476;2023-02-28T06:49:30;9.67;;;3.70;;
72920;SDS011;61064;51.654;5.476;2023-02-28T06:51:57;7.78;;;3.45;;
72920;SDS011;61064;51.654;5.476;2023-02-28T06:54:22;10.90;;;3.37;;
72920;SDS011;61064;51.654;5.476;2023-02-28T06:56:48;9.18;;;3.55;;
72920;SDS011;61064;51.654;5.476;2023-02-28T06:59:13;7.30;;;3.07;;
72920;SDS011;61064;51.654;5.476;2023-02-28T07:01:39;8.30;;;2.83;;
72920;SDS011;61064;51.654;5.476;2023-02-28T07:04:05;8.05;;;2.70;;
72920;SDS011;61064;51.654;5.476;2023-02-28T07:06:31;7.43;;;2.72;;
72920;SDS011;61064;51.654;5.476;2023-02-28T07:08:57;7.53;;;2.93;;
72920;SDS011;61064;51.654;5.476;2023-02-28T07:11:23;7.85;;;2.70;;
72920;SDS011;61064;51.654;5.476;2023-02-28T07:13:54;6.93;;;2.78;;
72920;SDS011;61064;51.654;5.476;2023-02-28T07:16:20;9.23;;;2.70;;
72920;SDS011;61064;51.654;5.476;2023-02-28T07:18:46;8.98;;;2.70;;
72920;SDS011;61064;51.654;5.476;2023-02-28T07:21:12;7.13;;;2.60;;
72920;SDS011;61064;51.654;5.476;2023-02-28T07:23:38;8.77;;;2.80;;
72920;SDS011;61064;51.654;5.476;2023-02-28T07:26:04;7.00;;;2.60;;
72920;SDS011;61064;51.654;5.476;2023-02-28T07:28:30;7.20;;;2.63;;
72920;SDS011;61064;51.654;5.476;2023-02-28T07:30:56;7.90;;;2.80;;
72920;SDS011;61064;51.654;5.476;2023-02-28T07:33:21;8.17;;;2.50;;
72920;SDS011;61064;51.654;5.476;2023-02-28T07:35:48;7.97;;;2.50;;
72920;SDS011;61064;51.654;5.476;2023-02-28T07:38:14;8.43;;;2.53;;
72920;SDS011;61064;51.654;5.476;2023-02-28T07:40:40;7.50;;;2.65;;
72920;SDS011;61064;51.654;5.476;2023-02-28T07:43:05;7.40;;;2.53;;
72920;SDS011;61064;51.654;5.476;2023-02-28T07:45:31;6.93;;;2.60;;
72920;SDS011;61064;51.654;5.476;2023-02-28T07:47:59;6.77;;;2.50;;
72920;SDS011;61064;51.654;5.476;2023-02-28T07:50:25;9.70;;;2.80;;
72920;SDS011;61064;51.654;5.476;2023-02-28T07:52:52;7.13;;;2.60;;
72920;SDS011;61064;51.654;5.476;2023-02-28T07:55:18;8.53;;;3.03;;
72920;SDS011;61064;51.654;5.476;2023-02-28T07:57:43;9.13;;;3.30;;
72920;SDS011;61064;51.654;5.476;2023-02-28T08:00:09;7.65;;;2.83;;
72920;SDS011;61064;51.654;5.476;2023-02-28T08:02:36;7.78;;;2.80;;
72920;SDS011;61064;51.654;5.476;2023-02-28T08:05:01;8.00;;;2.83;;
72920;SDS011;61064;51.654;5.476;2023-02-28T08:07:27;8.30;;;2.60;;
72920;SDS011;61064;51.654;5.476;2023-02-28T08:09:53;8.13;;;2.70;;
72920;SDS011;61064;51.654;5.476;2023-02-28T08:12:18;7.13;;;2.60;;
72920;SDS011;61064;51.654;5.476;2023-02-28T08:14:44;7.45;;;2.80;;
72920;SDS011;61064;51.654;5.476;2023-02-28T08:17:09;7.47;;;2.87;;
72920;SDS011;61064;51.654;5.476;2023-02-28T08:19:35;6.85;;;2.90;;
72920;SDS011;61064;51.654;5.476;2023-02-28T08:22:01;6.00;;;2.23;;
72920;SDS011;61064;51.654;5.476;2023-02-28T08:24:26;6.97;;;2.23;;
72920;SDS011;61064;51.654;5.476;2023-02-28T08:26:51;7.63;;;1.90;;
72920;SDS011;61064;51.654;5.476;2023-02-28T08:29:17;6.40;;;2.13;;
72920;SDS011;61064;51.654;5.476;2023-02-28T08:31:42;8.27;;;2.33;;
72920;SDS011;61064;51.654;5.476;2023-02-28T08:34:09;6.20;;;1.80;;
72920;SDS011;61064;51.654;5.476;2023-02-28T08:36:36;6.10;;;2.10;;
72920;SDS011;61064;51.654;5.476;2023-02-28T08:39:01;4.67;;;1.40;;
72920;SDS011;61064;51.654;5.476;2023-02-28T08:41:27;5.40;;;1.20;;
72920;SDS011;61064;51.654;5.476;2023-02-28T08:43:53;4.75;;;1.17;;
72920;SDS011;61064;51.654;5.476;2023-02-28T08:46:18;4.30;;;1.03;;
72920;SDS011;61064;51.654;5.476;2023-02-28T08:48:44;4.60;;;1.00;;
72920;SDS011;61064;51.654;5.476;2023-02-28T08:51:11;5.00;;;1.20;;
72920;SDS011;61064;51.654;5.476;2023-02-28T08:53:39;3.95;;;1.10;;
72920;SDS011;61064;51.654;5.476;2023-02-28T08:56:06;3.97;;;1.20;;
72920;SDS011;61064;51.654;5.476;2023-02-28T08:58:34;5.35;;;1.20;;
72920;SDS011;61064;51.654;5.476;2023-02-28T09:01:06;4.63;;;1.10;;
72920;SDS011;61064;51.654;5.476;2023-02-28T09:03:34;6.05;;;1.30;;
72920;SDS011;61064;51.654;5.476;2023-02-28T09:06:00;4.53;;;1.30;;
72920;SDS011;61064;51.654;5.476;2023-02-28T09:08:27;4.90;;;1.30;;
72920;SDS011;61064;51.654;5.476;2023-02-28T09:10:53;4.32;;;1.20;;
72920;SDS011;61064;51.654;5.476;2023-02-28T09:13:21;4.23;;;1.27;;
72920;SDS011;61064;51.654;5.476;2023-02-28T09:15:47;4.57;;;1.20;;
72920;SDS011;61064;51.654;5.476;2023-02-28T09:18:13;5.87;;;1.50;;
72920;SDS011;61064;51.654;5.476;2023-02-28T09:20:38;5.10;;;1.40;;
72920;SDS011;61064;51.654;5.476;2023-02-28T09:23:05;7.07;;;1.20;;
72920;SDS011;61064;51.654;5.476;2023-02-28T09:25:31;5.47;;;1.40;;
72920;SDS011;61064;51.654;5.476;2023-02-28T09:27:57;5.43;;;1.30;;
72920;SDS011;61064;51.654;5.476;2023-02-28T09:30:22;4.30;;;1.17;;
72920;SDS011;61064;51.654;5.476;2023-02-28T09:32:47;4.30;;;1.20;;
72920;SDS011;61064;51.654;5.476;2023-02-28T09:35:17;3.92;;;1.13;;
72920;SDS011;61064;51.654;5.476;2023-02-28T09:37:43;4.83;;;1.10;;
72920;SDS011;61064;51.654;5.476;2023-02-28T09:40:11;4.65;;;1.20;;
72920;SDS011;61064;51.654;5.476;2023-02-28T09:42:37;5.22;;;1.30;;
72920;SDS011;61064;51.654;5.476;2023-02-28T09:45:16;4.88;;;1.38;;
72920;SDS011;61064;51.654;5.476;2023-02-28T09:47:46;4.53;;;1.20;;
72920;SDS011;61064;51.654;5.476;2023-02-28T09:52:53;4.93;;;1.30;;
72920;SDS011;61064;51.654;5.476;2023-02-28T09:57:45;3.90;;;0.93;;
72920;SDS011;61064;51.654;5.476;2023-02-28T10:05:13;4.83;;;1.00;;
72920;SDS011;61064;51.654;5.476;2023-02-28T10:13:32;4.07;;;1.15;;
72920;SDS011;61064;51.654;5.476;2023-02-28T10:16:01;4.30;;;0.88;;
72920;SDS011;61064;51.654;5.476;2023-02-28T10:18:35;4.07;;;1.20;;
72920;SDS011;61064;51.654;5.476;2023-02-28T10:21:17;3.90;;;1.10;;
72920;SDS011;61064;51.654;5.476;2023-02-28T10:24:04;4.25;;;1.17;;
72920;SDS011;61064;51.654;5.476;2023-02-28T10:26:41;4.40;;;1.10;;
72920;SDS011;61064;51.654;5.476;2023-02-28T10:29:10;3.95;;;1.00;;
72920;SDS011;61064;51.654;5.476;2023-02-28T10:31:36;4.50;;;1.00;;
72920;SDS011;61064;51.654;5.476;2023-02-28T10:34:01;5.00;;;1.00;;
72920;SDS011;61064;51.654;5.476;2023-02-28T10:36:28;4.03;;;1.00;;
72920;SDS011;61064;51.654;5.476;2023-02-28T10:38:53;5.17;;;1.00;;
72920;SDS011;61064;51.654;5.476;2023-02-28T10:41:27;5.30;;;1.23;;
72920;SDS011;61064;51.654;5.476;2023-02-28T10:44:12;4.17;;;1.17;;
72920;SDS011;61064;51.654;5.476;2023-02-28T10:46:48;4.80;;;1.20;;
72920;SDS011;61064;51.654;5.476;2023-02-28T10:49:22;4.57;;;1.00;;
72920;SDS011;61064;51.654;5.476;2023-02-28T10:51:55;3.42;;;1.02;;
72920;SDS011;61064;51.654;5.476;2023-02-28T10:54:32;4.32;;;1.17;;
72920;SDS011;61064;51.654;5.476;2023-02-28T10:57:16;4.23;;;1.17;;
72920;SDS011;61064;51.654;5.476;2023-02-28T10:59:44;5.50;;;1.00;;
72920;SDS011;61064;51.654;5.476;2023-02-28T11:02:30;2.90;;;0.80;;
72920;SDS011;61064;51.654;5.476;2023-02-28T11:04:58;4.35;;;1.00;;
72920;SDS011;61064;51.654;5.476;2023-02-28T11:07:23;3.47;;;0.97;;
72920;SDS011;61064;51.654;5.476;2023-02-28T11:09:52;4.15;;;1.00;;
72920;SDS011;61064;51.654;5.476;2023-02-28T11:12:36;4.20;;;1.00;;
72920;SDS011;61064;51.654;5.476;2023-02-28T11:15:05;3.93;;;1.00;;
72920;SDS011;61064;51.654;5.476;2023-02-28T11:17:52;4.00;;;0.90;;
72920;SDS011;61064;51.654;5.476;2023-02-28T11:20:23;4.75;;;1.00;;
72920;SDS011;61064;51.654;5.476;2023-02-28T11:22:53;3.45;;;1.00;;
72920;SDS011;61064;51.654;5.476;2023-02-28T11:25:22;5.07;;;0.98;;
72920;SDS011;61064;51.654;5.476;2023-02-28T11:27:52;4.40;;;1.10;;
72920;SDS011;61064;51.654;5.476;2023-02-28T11:35:56;3.80;;;1.20;;
72920;SDS011;61064;51.654;5.476;2023-02-28T11:38:28;4.13;;;1.30;;
72920;SDS011;61064;51.654;5.476;2023-02-28T11:49:02;4.72;;;1.20;;
72920;SDS011;61064;51.654;5.476;2023-02-28T11:53:00;6.80;;;1.13;;
72920;SDS011;61064;51.654;5.476;2023-02-28T11:58:18;4.55;;;1.10;;
72920;SDS011;61064;51.654;5.476;2023-02-28T12:03:51;7.20;;;1.50;;
72920;SDS011;61064;51.654;5.476;2023-02-28T12:15:13;4.53;;;1.23;;
72920;SDS011;61064;51.654;5.476;2023-02-28T12:17:51;5.53;;;1.20;;
72920;SDS011;61064;51.654;5.476;2023-02-28T12:20:31;5.63;;;1.53;;
72920;SDS011;61064;51.654;5.476;2023-02-28T12:26:07;4.43;;;1.17;;
72920;SDS011;61064;51.654;5.476;2023-02-28T12:28:40;3.72;;;1.10;;
72920;SDS011;61064;51.654;5.476;2023-02-28T12:33:45;5.93;;;1.40;;
72920;SDS011;61064;51.654;5.476;2023-02-28T12:36:16;4.78;;;1.40;;
72920;SDS011;61064;51.654;5.476;2023-02-28T12:44:28;4.80;;;1.20;;
72920;SDS011;61064;51.654;5.476;2023-02-28T12:46:59;5.20;;;1.50;;
72920;SDS011;61064;51.654;5.476;2023-02-28T12:49:34;3.95;;;1.20;;
72920;SDS011;61064;51.654;5.476;2023-02-28T12:58:01;4.63;;;1.30;;
72920;SDS011;61064;51.654;5.476;2023-02-28T13:00:34;4.53;;;1.60;;
72920;SDS011;61064;51.654;5.476;2023-02-28T13:06:39;4.55;;;1.20;;
72920;SDS011;61064;51.654;5.476;2023-02-28T13:09:13;5.35;;;1.20;;
72920;SDS011;61064;51.654;5.476;2023-02-28T13:17:10;4.25;;;1.10;;
72920;SDS011;61064;51.654;5.476;2023-02-28T13:19:45;4.40;;;1.30;;
72920;SDS011;61064;51.654;5.476;2023-02-28T13:24:55;4.73;;;1.33;;
72920;SDS011;61064;51.654;5.476;2023-02-28T13:29:50;5.15;;;1.50;;
72920;SDS011;61064;51.654;5.476;2023-02-28T13:32:18;4.93;;;1.30;;
72920;SDS011;61064;51.654;5.476;2023-02-28T13:42:34;6.32;;;1.42;;
72920;SDS011;61064;51.654;5.476;2023-02-28T13:47:34;4.43;;;1.35;;
72920;SDS011;61064;51.654;5.476;2023-02-28T13:50:14;5.85;;;1.33;;
72920;SDS011;61064;51.654;5.476;2023-02-28T14:07:09;5.95;;;1.42;;
72920;SDS011;61064;51.654;5.476;2023-02-28T14:09:45;4.47;;;1.33;;
72920;SDS011;61064;51.654;5.476;2023-02-28T14:23:44;5.00;;;1.52;;
72920;SDS011;61064;51.654;5.476;2023-02-28T14:26:26;4.50;;;1.30;;
72920;SDS011;61064;51.654;5.476;2023-02-28T14:37:28;5.85;;;1.70;;
72920;SDS011;61064;51.654;5.476;2023-02-28T14:39:58;5.77;;;1.80;;
72920;SDS011;61064;51.654;5.476;2023-02-28T14:42:35;8.13;;;1.60;;
72920;SDS011;61064;51.654;5.476;2023-02-28T14:45:18;6.45;;;1.60;;
72920;SDS011;61064;51.654;5.476;2023-02-28T14:47:45;5.68;;;1.65;;
72920;SDS011;61064;51.654;5.476;2023-02-28T14:50:21;6.07;;;1.70;;
72920;SDS011;61064;51.654;5.476;2023-02-28T14:52:55;6.80;;;1.90;;
72920;SDS011;61064;51.654;5.476;2023-02-28T14:55:43;5.07;;;1.63;;
72920;SDS011;61064;51.654;5.476;2023-02-28T14:58:21;6.22;;;1.80;;
72920;SDS011;61064;51.654;5.476;2023-02-28T15:00:51;5.15;;;1.70;;
72920;SDS011;61064;51.654;5.476;2023-02-28T15:05:58;5.93;;;1.80;;
72920;SDS011;61064;51.654;5.476;2023-02-28T15:08:28;5.55;;;1.67;;
72920;SDS011;61064;51.654;5.476;2023-02-28T15:11:01;6.43;;;1.88;;
72920;SDS011;61064;51.654;5.476;2023-02-28T15:13:36;5.57;;;1.60;;
72920;SDS011;61064;51.654;5.476;2023-02-28T15:16:22;5.15;;;1.60;;
72920;SDS011;61064;51.654;5.476;2023-02-28T15:19:23;5.03;;;1.50;;
72920;SDS011;61064;51.654;5.476;2023-02-28T15:21:56;5.28;;;1.60;;
72920;SDS011;61064;51.654;5.476;2023-02-28T15:27:02;6.50;;;1.88;;
72920;SDS011;61064;51.654;5.476;2023-02-28T15:29:33;6.15;;;1.90;;
72920;SDS011;61064;51.654;5.476;2023-02-28T15:32:07;6.13;;;1.80;;
72920;SDS011;61064;51.654;5.476;2023-02-28T15:34:43;6.15;;;1.80;;
72920;SDS011;61064;51.654;5.476;2023-02-28T15:40:23;5.78;;;1.95;;
72920;SDS011;61064;51.654;5.476;2023-02-28T15:42:59;6.60;;;1.70;;
72920;SDS011;61064;51.654;5.476;2023-02-28T15:45:38;5.45;;;1.70;;
72920;SDS011;61064;51.654;5.476;2023-02-28T15:48:15;5.88;;;1.55;;
72920;SDS011;61064;51.654;5.476;2023-02-28T15:50:53;5.88;;;1.60;;
72920;SDS011;61064;51.654;5.476;2023-02-28T15:53:54;5.13;;;1.60;;
72920;SDS011;61064;51.654;5.476;2023-02-28T15:56:27;5.30;;;1.57;;
72920;SDS011;61064;51.654;5.476;2023-02-28T15:58:55;7.78;;;1.90;;
72920;SDS011;61064;51.654;5.476;2023-02-28T16:01:26;7.07;;;1.70;;
72920;SDS011;61064;51.654;5.476;2023-02-28T16:03:59;6.40;;;1.70;;
72920;SDS011;61064;51.654;5.476;2023-02-28T16:09:00;6.20;;;1.63;;
72920;SDS011;61064;51.654;5.476;2023-02-28T16:11:26;6.78;;;1.83;;
72920;SDS011;61064;51.654;5.476;2023-02-28T16:13:51;5.93;;;1.80;;
72920;SDS011;61064;51.654;5.476;2023-02-28T16:16:18;6.03;;;1.70;;
72920;SDS011;61064;51.654;5.476;2023-02-28T16:18:45;6.25;;;1.73;;
72920;SDS011;61064;51.654;5.476;2023-02-28T16:21:11;5.57;;;1.55;;
72920;SDS011;61064;51.654;5.476;2023-02-28T16:23:37;6.50;;;1.70;;
72920;SDS011;61064;51.654;5.476;2023-02-28T16:26:02;5.47;;;1.80;;
72920;SDS011;61064;51.654;5.476;2023-02-28T16:28:30;4.68;;;1.52;;
72920;SDS011;61064;51.654;5.476;2023-02-28T16:31:00;4.60;;;1.50;;
72920;SDS011;61064;51.654;5.476;2023-02-28T16:33:29;7.88;;;1.70;;
72920;SDS011;61064;51.654;5.476;2023-02-28T16:35:56;4.83;;;1.60;;
72920;SDS011;61064;51.654;5.476;2023-02-28T16:38:25;4.80;;;1.40;;
72920;SDS011;61064;51.654;5.476;2023-02-28T16:40:51;6.45;;;1.80;;
72920;SDS011;61064;51.654;5.476;2023-02-28T16:43:24;6.75;;;1.60;;
72920;SDS011;61064;51.654;5.476;2023-02-28T16:45:54;5.87;;;1.60;;
72920;SDS011;61064;51.654;5.476;2023-02-28T16:48:21;5.07;;;1.60;;
72920;SDS011;61064;51.654;5.476;2023-02-28T16:50:47;6.10;;;1.75;;
72920;SDS011;61064;51.654;5.476;2023-02-28T16:53:12;4.90;;;1.57;;
72920;SDS011;61064;51.654;5.476;2023-02-28T16:55:38;5.10;;;1.57;;
72920;SDS011;61064;51.654;5.476;2023-02-28T16:58:04;5.55;;;1.70;;
72920;SDS011;61064;51.654;5.476;2023-02-28T17:00:31;5.53;;;1.90;;
72920;SDS011;61064;51.654;5.476;2023-02-28T17:02:57;5.40;;;2.00;;
72920;SDS011;61064;51.654;5.476;2023-02-28T17:05:24;5.85;;;1.60;;
72920;SDS011;61064;51.654;5.476;2023-02-28T17:07:51;5.73;;;1.70;;
72920;SDS011;61064;51.654;5.476;2023-02-28T17:10:21;5.55;;;1.70;;
72920;SDS011;61064;51.654;5.476;2023-02-28T17:12:49;5.83;;;1.80;;
72920;SDS011;61064;51.654;5.476;2023-02-28T17:15:16;5.25;;;1.80;;
72920;SDS011;61064;51.654;5.476;2023-02-28T17:17:43;4.68;;;1.50;;
72920;SDS011;61064;51.654;5.476;2023-02-28T17:20:11;6.60;;;2.25;;
72920;SDS011;61064;51.654;5.476;2023-02-28T17:22:38;6.63;;;1.83;;
72920;SDS011;61064;51.654;5.476;2023-02-28T17:25:04;6.57;;;2.10;;
72920;SDS011;61064;51.654;5.476;2023-02-28T17:27:31;5.70;;;1.83;;
72920;SDS011;61064;51.654;5.476;2023-02-28T17:29:57;6.20;;;1.63;;
72920;SDS011;61064;51.654;5.476;2023-02-28T17:32:22;6.03;;;1.70;;
72920;SDS011;61064;51.654;5.476;2023-02-28T17:34:48;8.00;;;2.03;;
72920;SDS011;61064;51.654;5.476;2023-02-28T17:37:14;5.90;;;2.00;;
72920;SDS011;61064;51.654;5.476;2023-02-28T17:39:39;5.20;;;1.83;;
72920;SDS011;61064;51.654;5.476;2023-02-28T17:42:05;6.40;;;1.80;;
72920;SDS011;61064;51.654;5.476;2023-02-28T17:44:30;5.93;;;2.00;;
72920;SDS011;61064;51.654;5.476;2023-02-28T17:46:56;4.83;;;1.70;;
72920;SDS011;61064;51.654;5.476;2023-02-28T17:49:21;8.37;;;2.10;;